Cosco Kaohsiung — VREM3 — position and weather

sailwx.info

Track history (hours):
 
Tides and Currents Weather Stations Pressure Air Temp Water Temp Dewpoint Dewpoint Depression Visibility Wind Speed Wind Dir Waves Ship Positions

Cosco Kaohsiung

Last reported at 2015-Aug-20 04:27 UTC. Time now 2015-Aug-30 12:00 UTC.
Position N 03°11' E 100°36'.
Warning: this ship's position is 10 days out of date.

Length 349 m; draft 13.6 m.

Type: Ship (hazmat cat A). MMSI: 477136800.

Date/timePositionNaut miles runAvg speedWind from/ knotsBaromVisibWave heightAir tempDewpointWater temp
2015-Aug-20 04:27N 03°11' E 100°36'3418.0
2015-Aug-20 02:33N 02°49' E 101°01'3216.0
2015-Aug-20 00:34N 02°35' E 101°30'3517.4
2015-Aug-19 22:32N 02°13' E 101°57'11917.0
2015-Aug-19 15:33N 01°13' E 103°40'7 6.7
2015-Aug-19 14:33N 01°17' E 103°46'0 0.3
2015-Aug-19 13:32N 01°17' E 103°46'0 0.0
2015-Aug-19 12:17N 01°17' E 103°46'0 0.0
2015-Aug-19 11:26N 01°17' E 103°46'0 0.0
2015-Aug-19 10:32N 01°17' E 103°46'0 0.0
2015-Aug-19 09:32N 01°17' E 103°46'0 0.0
2015-Aug-19 08:32N 01°17' E 103°46'0 0.0
2015-Aug-19 07:08N 01°17' E 103°46'0 0.0
2015-Aug-19 06:32N 01°17' E 103°46'0 0.0
2015-Aug-19 05:32N 01°17' E 103°46'0 0.0
2015-Aug-19 04:32N 01°17' E 103°46'0 0.0
2015-Aug-19 03:32N 01°17' E 103°46'0 0.0
2015-Aug-19 02:32N 01°17' E 103°46'0 0.1
2015-Aug-19 01:33N 01°17' E 103°46'1 1.0
2015-Aug-19 00:33N 01°16' E 103°45'7 7.0
2015-Aug-18 23:32N 01°13' E 103°52'4 4.5
2015-Aug-18 22:33N 01°14' E 103°56'1212.2
2015-Aug-18 21:33N 01°16' E 104°08'5413.0
2015-Aug-18 17:23N 01°55' E 104°46'  
2015-Aug-15 10:14N 22°06' E 113°51'711.1
2015-Aug-15 09:33N 22°14' E 113°49'1413.3
2015-Aug-15 08:32N 22°27' E 113°45'5 0.5
2015-Aug-14 21:33N 22°22' E 113°47'1010.2
2015-Aug-14 20:33N 22°12' E 113°50'7 7.0
2015-Aug-14 19:30N 22°05' E 113°52'14 6.2
2015-Aug-14 17:12N 22°08' E 114°07'6 6.3
2015-Aug-14 16:19N 22°08' E 114°13'5 6.0
2015-Aug-14 15:32N 22°08' E 114°18'5 5.5
2015-Aug-14 14:33N 22°12' E 114°23'6 5.9
2015-Aug-14 13:33N 22°16' E 114°26'20 4.0
2015-Aug-14 08:28N 22°34' E 114°16'0 0.0
2015-Aug-14 07:22N 22°34' E 114°16'0 0.0
2015-Aug-14 06:22N 22°34' E 114°16'0 0.0
2015-Aug-14 05:28N 22°34' E 114°16'0 0.0
2015-Aug-14 04:28N 22°34' E 114°16'0 0.0
2015-Aug-14 03:22N 22°34' E 114°16'0 0.0
2015-Aug-14 02:28N 22°34' E 114°16'0 0.0
2015-Aug-14 01:22N 22°34' E 114°16'0 0.1
2015-Aug-13 23:18N 22°34' E 114°16'19 6.1
2015-Aug-13 20:07N 22°17' E 114°27'711.1
2015-Aug-13 19:27N 22°11' E 114°24'18 9.6
2015-Aug-13 17:33N 22°18' E 114°06'3 2.4
2015-Aug-13 16:24N 22°20' E 114°08'0 0.0
2015-Aug-13 14:30N 22°20' E 114°08'0 0.1
2015-Aug-13 13:33N 22°20' E 114°08'0 0.0
2015-Aug-13 12:30N 22°20' E 114°08'0 0.0
2015-Aug-13 11:33N 22°20' E 114°08'0 0.0
2015-Aug-13 10:24N 22°20' E 114°08'0 0.0
2015-Aug-13 09:27N 22°20' E 114°08'0 0.0
2015-Aug-13 08:18N 22°20' E 114°08'0 0.0
2015-Aug-13 07:24N 22°20' E 114°08'0 0.1
2015-Aug-13 06:33N 22°20' E 114°08'0 0.0
2015-Aug-13 05:27N 22°20' E 114°08'0 0.1
2015-Aug-13 04:33N 22°20' E 114°08'0 0.0
2015-Aug-13 03:24N 22°20' E 114°08'0 0.0
2015-Aug-13 02:15N 22°20' E 114°08'0 0.3
2015-Aug-13 01:33N 22°20' E 114°08'14 7.1
2015-Aug-12 23:33N 22°09' E 114°18'8 8.6
2015-Aug-12 22:33N 22°08' E 114°27'23113.3
2015-Aug-12 05:13N 23°46' E 118°14'1014.8
2015-Aug-12 04:33N 23°51' E 118°23'1615.8
2015-Aug-12 03:33N 24°01' E 118°36'2217.3
2015-Aug-12 02:18N 24°14' E 118°56'1715.9
2015-Aug-12 01:14N 24°26' E 119°09'1116.3
2015-Aug-12 00:33N 24°33' E 119°18'3114.7
2015-Aug-11 22:28N 24°55' E 119°42'1313.7
2015-Aug-11 21:33N 25°05' E 119°50'29713.3
2015-Aug-10 23:13N 29°29' E 122°24'1212.9
2015-Aug-10 22:16N 29°41' E 122°20'1011.7
2015-Aug-10 21:23N 29°49' E 122°13'910.7
2015-Aug-10 20:33N 29°55' E 122°06'3 0.2
2015-Aug-10 05:11N 29°53' E 122°03'4 5.5
2015-Aug-10 04:33N 29°55' E 122°07'  
Track history (hours):
 
Tides and Currents Weather Stations Pressure Air Temp Water Temp Dewpoint Dewpoint Depression Visibility Wind Speed Wind Dir Waves Ship Positions

Cosco Kaohsiung

Last reported at 2015-Aug-20 04:27 UTC. Time now 2015-Aug-30 12:00 UTC.
Position N 03°11' E 100°36'.
Warning: this ship's position is 10 days out of date.

Length 349 m; draft 13.6 m.

Type: Ship (hazmat cat A). MMSI: 477136800.

Date/timePositionNaut miles runAvg speedWind from/ knotsBaromVisibWave heightAir tempDewpointWater temp
2015-Aug-20 04:27N 03°11' E 100°36'3418.0
2015-Aug-20 02:33N 02°49' E 101°01'3216.0
2015-Aug-20 00:34N 02°35' E 101°30'3517.4
2015-Aug-19 22:32N 02°13' E 101°57'11917.0
2015-Aug-19 15:33N 01°13' E 103°40'7 6.7
2015-Aug-19 14:33N 01°17' E 103°46'0 0.3
2015-Aug-19 13:32N 01°17' E 103°46'0 0.0
2015-Aug-19 12:17N 01°17' E 103°46'0 0.0
2015-Aug-19 11:26N 01°17' E 103°46'0 0.0
2015-Aug-19 10:32N 01°17' E 103°46'0 0.0
2015-Aug-19 09:32N 01°17' E 103°46'0 0.0
2015-Aug-19 08:32N 01°17' E 103°46'0 0.0
2015-Aug-19 07:08N 01°17' E 103°46'0 0.0
2015-Aug-19 06:32N 01°17' E 103°46'0 0.0
2015-Aug-19 05:32N 01°17' E 103°46'0 0.0
2015-Aug-19 04:32N 01°17' E 103°46'0 0.0
2015-Aug-19 03:32N 01°17' E 103°46'0 0.0
2015-Aug-19 02:32N 01°17' E 103°46'0 0.1
2015-Aug-19 01:33N 01°17' E 103°46'1 1.0
2015-Aug-19 00:33N 01°16' E 103°45'7 7.0
2015-Aug-18 23:32N 01°13' E 103°52'4 4.5
2015-Aug-18 22:33N 01°14' E 103°56'1212.2
2015-Aug-18 21:33N 01°16' E 104°08'5413.0
2015-Aug-18 17:23N 01°55' E 104°46'  
2015-Aug-15 10:14N 22°06' E 113°51'711.1
2015-Aug-15 09:33N 22°14' E 113°49'1413.3
2015-Aug-15 08:32N 22°27' E 113°45'5 0.5
2015-Aug-14 21:33N 22°22' E 113°47'1010.2
2015-Aug-14 20:33N 22°12' E 113°50'7 7.0
2015-Aug-14 19:30N 22°05' E 113°52'14 6.2
2015-Aug-14 17:12N 22°08' E 114°07'6 6.3
2015-Aug-14 16:19N 22°08' E 114°13'5 6.0
2015-Aug-14 15:32N 22°08' E 114°18'5 5.5
2015-Aug-14 14:33N 22°12' E 114°23'6 5.9
2015-Aug-14 13:33N 22°16' E 114°26'20 4.0
2015-Aug-14 08:28N 22°34' E 114°16'0 0.0
2015-Aug-14 07:22N 22°34' E 114°16'0 0.0
2015-Aug-14 06:22N 22°34' E 114°16'0 0.0
2015-Aug-14 05:28N 22°34' E 114°16'0 0.0
2015-Aug-14 04:28N 22°34' E 114°16'0 0.0
2015-Aug-14 03:22N 22°34' E 114°16'0 0.0
2015-Aug-14 02:28N 22°34' E 114°16'0 0.0
2015-Aug-14 01:22N 22°34' E 114°16'0 0.1
2015-Aug-13 23:18N 22°34' E 114°16'19 6.1
2015-Aug-13 20:07N 22°17' E 114°27'711.1
2015-Aug-13 19:27N 22°11' E 114°24'18 9.6
2015-Aug-13 17:33N 22°18' E 114°06'3 2.4
2015-Aug-13 16:24N 22°20' E 114°08'0 0.0
2015-Aug-13 14:30N 22°20' E 114°08'0 0.1
2015-Aug-13 13:33N 22°20' E 114°08'0 0.0
2015-Aug-13 12:30N 22°20' E 114°08'0 0.0
2015-Aug-13 11:33N 22°20' E 114°08'0 0.0
2015-Aug-13 10:24N 22°20' E 114°08'0 0.0
2015-Aug-13 09:27N 22°20' E 114°08'0 0.0
2015-Aug-13 08:18N 22°20' E 114°08'0 0.0
2015-Aug-13 07:24N 22°20' E 114°08'0 0.1
2015-Aug-13 06:33N 22°20' E 114°08'0 0.0
2015-Aug-13 05:27N 22°20' E 114°08'0 0.1
2015-Aug-13 04:33N 22°20' E 114°08'0 0.0
2015-Aug-13 03:24N 22°20' E 114°08'0 0.0
2015-Aug-13 02:15N 22°20' E 114°08'0 0.3
2015-Aug-13 01:33N 22°20' E 114°08'14 7.1
2015-Aug-12 23:33N 22°09' E 114°18'8 8.6
2015-Aug-12 22:33N 22°08' E 114°27'23113.3
2015-Aug-12 05:13N 23°46' E 118°14'1014.8
2015-Aug-12 04:33N 23°51' E 118°23'1615.8
2015-Aug-12 03:33N 24°01' E 118°36'2217.3
2015-Aug-12 02:18N 24°14' E 118°56'1715.9
2015-Aug-12 01:14N 24°26' E 119°09'1116.3
2015-Aug-12 00:33N 24°33' E 119°18'3114.7
2015-Aug-11 22:28N 24°55' E 119°42'1313.7
2015-Aug-11 21:33N 25°05' E 119°50'29713.3
2015-Aug-10 23:13N 29°29' E 122°24'1212.9
2015-Aug-10 22:16N 29°41' E 122°20'1011.7
2015-Aug-10 21:23N 29°49' E 122°13'910.7
2015-Aug-10 20:33N 29°55' E 122°06'3 0.2
2015-Aug-10 05:11N 29°53' E 122°03'4 5.5
2015-Aug-10 04:33N 29°55' E 122°07'  

Dump ship's entire track history